sensor_id;sensor_type;location;lat;lon;timestamp;P1;durP1;ratioP1;P2;durP2;ratioP2
1296;SDS011;641;48.492;9.184;2022-07-26T00:01:23;8.10;;;2.03;;
1296;SDS011;641;48.492;9.184;2022-07-26T00:03:49;8.67;;;2.23;;
1296;SDS011;641;48.492;9.184;2022-07-26T00:06:15;8.60;;;2.30;;
1296;SDS011;641;48.492;9.184;2022-07-26T00:08:41;9.87;;;2.20;;
1296;SDS011;641;48.492;9.184;2022-07-26T00:11:07;10.13;;;2.60;;
1296;SDS011;641;48.492;9.184;2022-07-26T00:13:33;9.27;;;2.47;;
1296;SDS011;641;48.492;9.184;2022-07-26T00:16:00;6.77;;;1.63;;
1296;SDS011;641;48.492;9.184;2022-07-26T00:18:25;11.20;;;2.17;;
1296;SDS011;641;48.492;9.184;2022-07-26T00:20:51;10.77;;;2.20;;
1296;SDS011;641;48.492;9.184;2022-07-26T00:23:18;10.87;;;2.30;;
1296;SDS011;641;48.492;9.184;2022-07-26T00:25:43;7.57;;;1.80;;
1296;SDS011;641;48.492;9.184;2022-07-26T00:28:10;9.30;;;2.60;;
1296;SDS011;641;48.492;9.184;2022-07-26T00:30:36;7.40;;;2.40;;
1296;SDS011;641;48.492;9.184;2022-07-26T00:33:02;8.80;;;2.27;;
1296;SDS011;641;48.492;9.184;2022-07-26T00:35:28;7.27;;;1.70;;
1296;SDS011;641;48.492;9.184;2022-07-26T00:37:54;13.17;;;4.17;;
1296;SDS011;641;48.492;9.184;2022-07-26T00:40:20;10.63;;;2.27;;
1296;SDS011;641;48.492;9.184;2022-07-26T00:42:46;7.20;;;1.63;;
1296;SDS011;641;48.492;9.184;2022-07-26T00:45:12;8.90;;;2.20;;
1296;SDS011;641;48.492;9.184;2022-07-26T00:47:39;9.13;;;1.93;;
1296;SDS011;641;48.492;9.184;2022-07-26T00:50:06;13.13;;;1.70;;
1296;SDS011;641;48.492;9.184;2022-07-26T00:52:34;11.17;;;1.77;;
1296;SDS011;641;48.492;9.184;2022-07-26T00:54:59;11.20;;;2.80;;
1296;SDS011;641;48.492;9.184;2022-07-26T00:57:25;8.40;;;2.37;;
1296;SDS011;641;48.492;9.184;2022-07-26T00:59:51;13.03;;;2.93;;
1296;SDS011;641;48.492;9.184;2022-07-26T01:02:17;10.60;;;2.83;;
1296;SDS011;641;48.492;9.184;2022-07-26T01:04:43;10.57;;;2.97;;
1296;SDS011;641;48.492;9.184;2022-07-26T01:07:10;8.83;;;3.40;;
1296;SDS011;641;48.492;9.184;2022-07-26T01:09:37;10.63;;;2.63;;
1296;SDS011;641;48.492;9.184;2022-07-26T01:12:04;8.17;;;2.60;;
1296;SDS011;641;48.492;9.184;2022-07-26T01:14:29;8.07;;;2.40;;
1296;SDS011;641;48.492;9.184;2022-07-26T01:16:55;13.70;;;2.10;;
1296;SDS011;641;48.492;9.184;2022-07-26T01:19:23;7.47;;;1.90;;
1296;SDS011;641;48.492;9.184;2022-07-26T01:21:49;8.07;;;1.80;;
1296;SDS011;641;48.492;9.184;2022-07-26T01:24:15;8.03;;;2.00;;
1296;SDS011;641;48.492;9.184;2022-07-26T01:26:42;10.97;;;2.00;;
1296;SDS011;641;48.492;9.184;2022-07-26T01:29:07;10.33;;;2.10;;
1296;SDS011;641;48.492;9.184;2022-07-26T01:31:33;9.63;;;2.30;;
1296;SDS011;641;48.492;9.184;2022-07-26T01:33:59;7.80;;;2.30;;
1296;SDS011;641;48.492;9.184;2022-07-26T01:36:24;7.77;;;2.33;;
1296;SDS011;641;48.492;9.184;2022-07-26T01:38:50;7.13;;;1.73;;
1296;SDS011;641;48.492;9.184;2022-07-26T01:41:16;8.70;;;2.00;;
1296;SDS011;641;48.492;9.184;2022-07-26T01:43:41;7.27;;;1.83;;
1296;SDS011;641;48.492;9.184;2022-07-26T01:46:07;8.10;;;2.00;;
1296;SDS011;641;48.492;9.184;2022-07-26T01:48:34;7.90;;;1.60;;
1296;SDS011;641;48.492;9.184;2022-07-26T01:51:00;6.30;;;1.57;;
1296;SDS011;641;48.492;9.184;2022-07-26T01:53:26;10.70;;;2.17;;
1296;SDS011;641;48.492;9.184;2022-07-26T01:55:51;7.47;;;1.80;;
1296;SDS011;641;48.492;9.184;2022-07-26T01:58:17;8.47;;;1.93;;
1296;SDS011;641;48.492;9.184;2022-07-26T02:00:43;7.47;;;2.00;;
1296;SDS011;641;48.492;9.184;2022-07-26T02:03:08;7.60;;;2.00;;
1296;SDS011;641;48.492;9.184;2022-07-26T02:05:34;7.50;;;2.17;;
1296;SDS011;641;48.492;9.184;2022-07-26T02:07:59;7.17;;;1.90;;
1296;SDS011;641;48.492;9.184;2022-07-26T02:10:25;9.33;;;2.40;;
1296;SDS011;641;48.492;9.184;2022-07-26T02:13:12;7.87;;;2.27;;
1296;SDS011;641;48.492;9.184;2022-07-26T02:15:38;9.90;;;1.80;;
1296;SDS011;641;48.492;9.184;2022-07-26T02:18:04;12.90;;;1.83;;
1296;SDS011;641;48.492;9.184;2022-07-26T02:20:29;8.87;;;2.20;;
1296;SDS011;641;48.492;9.184;2022-07-26T02:22:57;7.73;;;1.70;;
1296;SDS011;641;48.492;9.184;2022-07-26T02:25:24;10.67;;;1.77;;
1296;SDS011;641;48.492;9.184;2022-07-26T02:27:50;18.97;;;3.20;;
1296;SDS011;641;48.492;9.184;2022-07-26T02:30:15;7.17;;;1.97;;
1296;SDS011;641;48.492;9.184;2022-07-26T02:32:41;8.77;;;2.23;;
1296;SDS011;641;48.492;9.184;2022-07-26T02:35:07;11.23;;;1.80;;
1296;SDS011;641;48.492;9.184;2022-07-26T02:37:33;6.57;;;1.43;;
1296;SDS011;641;48.492;9.184;2022-07-26T02:39:59;7.77;;;1.80;;
1296;SDS011;641;48.492;9.184;2022-07-26T02:42:25;9.40;;;1.67;;
1296;SDS011;641;48.492;9.184;2022-07-26T02:44:51;7.83;;;1.87;;
1296;SDS011;641;48.492;9.184;2022-07-26T02:47:18;7.90;;;1.90;;
1296;SDS011;641;48.492;9.184;2022-07-26T02:49:43;7.90;;;1.63;;
1296;SDS011;641;48.492;9.184;2022-07-26T02:52:09;7.67;;;1.70;;
1296;SDS011;641;48.492;9.184;2022-07-26T02:54:35;7.80;;;1.40;;
1296;SDS011;641;48.492;9.184;2022-07-26T02:57:01;6.77;;;1.63;;
1296;SDS011;641;48.492;9.184;2022-07-26T02:59:26;7.70;;;1.73;;
1296;SDS011;641;48.492;9.184;2022-07-26T03:01:52;7.00;;;1.50;;
1296;SDS011;641;48.492;9.184;2022-07-26T03:04:17;10.10;;;1.90;;
1296;SDS011;641;48.492;9.184;2022-07-26T03:06:43;7.30;;;1.90;;
1296;SDS011;641;48.492;9.184;2022-07-26T03:09:09;10.17;;;1.87;;
1296;SDS011;641;48.492;9.184;2022-07-26T03:11:34;7.27;;;1.40;;
1296;SDS011;641;48.492;9.184;2022-07-26T03:14:00;7.77;;;1.70;;
1296;SDS011;641;48.492;9.184;2022-07-26T03:16:25;8.00;;;1.80;;
1296;SDS011;641;48.492;9.184;2022-07-26T03:18:51;6.93;;;1.50;;
1296;SDS011;641;48.492;9.184;2022-07-26T03:21:17;7.70;;;1.70;;
1296;SDS011;641;48.492;9.184;2022-07-26T03:23:42;6.87;;;1.90;;
1296;SDS011;641;48.492;9.184;2022-07-26T03:26:08;8.83;;;1.60;;
1296;SDS011;641;48.492;9.184;2022-07-26T03:28:34;7.97;;;1.57;;
1296;SDS011;641;48.492;9.184;2022-07-26T03:31:00;8.90;;;1.77;;
1296;SDS011;641;48.492;9.184;2022-07-26T03:33:26;7.03;;;1.73;;
1296;SDS011;641;48.492;9.184;2022-07-26T03:35:53;7.13;;;2.00;;
1296;SDS011;641;48.492;9.184;2022-07-26T03:38:18;7.20;;;1.73;;
1296;SDS011;641;48.492;9.184;2022-07-26T03:40:44;7.10;;;1.50;;
1296;SDS011;641;48.492;9.184;2022-07-26T03:43:10;7.90;;;1.80;;
1296;SDS011;641;48.492;9.184;2022-07-26T03:45:35;8.03;;;2.07;;
1296;SDS011;641;48.492;9.184;2022-07-26T03:48:01;8.00;;;1.30;;
1296;SDS011;641;48.492;9.184;2022-07-26T03:50:26;6.43;;;1.37;;
1296;SDS011;641;48.492;9.184;2022-07-26T03:52:52;7.93;;;1.60;;
1296;SDS011;641;48.492;9.184;2022-07-26T03:55:18;8.70;;;1.80;;
1296;SDS011;641;48.492;9.184;2022-07-26T03:58:02;7.03;;;1.53;;
1296;SDS011;641;48.492;9.184;2022-07-26T04:00:27;9.70;;;1.60;;
1296;SDS011;641;48.492;9.184;2022-07-26T04:02:53;8.23;;;1.60;;
1296;SDS011;641;48.492;9.184;2022-07-26T04:05:19;7.10;;;1.50;;
1296;SDS011;641;48.492;9.184;2022-07-26T04:07:45;7.20;;;1.83;;
1296;SDS011;641;48.492;9.184;2022-07-26T04:10:11;8.33;;;1.77;;
1296;SDS011;641;48.492;9.184;2022-07-26T04:12:37;8.50;;;1.63;;
1296;SDS011;641;48.492;9.184;2022-07-26T04:15:04;8.57;;;1.80;;
1296;SDS011;641;48.492;9.184;2022-07-26T04:17:37;8.97;;;2.23;;
1296;SDS011;641;48.492;9.184;2022-07-26T04:20:03;9.23;;;2.30;;
1296;SDS011;641;48.492;9.184;2022-07-26T04:22:30;7.00;;;1.70;;
1296;SDS011;641;48.492;9.184;2022-07-26T04:24:56;7.33;;;1.80;;
1296;SDS011;641;48.492;9.184;2022-07-26T04:27:22;10.70;;;2.57;;
1296;SDS011;641;48.492;9.184;2022-07-26T04:29:47;7.60;;;2.40;;
1296;SDS011;641;48.492;9.184;2022-07-26T04:32:13;8.63;;;2.10;;
1296;SDS011;641;48.492;9.184;2022-07-26T04:34:38;7.00;;;2.00;;
1296;SDS011;641;48.492;9.184;2022-07-26T04:37:04;8.57;;;1.90;;
1296;SDS011;641;48.492;9.184;2022-07-26T04:39:29;7.67;;;1.80;;
1296;SDS011;641;48.492;9.184;2022-07-26T04:41:55;7.00;;;1.70;;
1296;SDS011;641;48.492;9.184;2022-07-26T04:44:21;8.07;;;2.23;;
1296;SDS011;641;48.492;9.184;2022-07-26T04:46:46;9.00;;;2.53;;
1296;SDS011;641;48.492;9.184;2022-07-26T04:49:12;8.37;;;1.97;;
1296;SDS011;641;48.492;9.184;2022-07-26T04:51:37;6.70;;;1.50;;
1296;SDS011;641;48.492;9.184;2022-07-26T04:54:03;8.80;;;1.77;;
1296;SDS011;641;48.492;9.184;2022-07-26T04:56:29;8.57;;;1.63;;
1296;SDS011;641;48.492;9.184;2022-07-26T04:58:54;10.43;;;1.70;;
1296;SDS011;641;48.492;9.184;2022-07-26T05:01:20;11.23;;;2.13;;
1296;SDS011;641;48.492;9.184;2022-07-26T05:03:46;10.50;;;2.27;;
1296;SDS011;641;48.492;9.184;2022-07-26T05:06:11;9.53;;;1.80;;
1296;SDS011;641;48.492;9.184;2022-07-26T05:08:37;8.37;;;2.17;;
1296;SDS011;641;48.492;9.184;2022-07-26T05:11:02;8.30;;;1.63;;
1296;SDS011;641;48.492;9.184;2022-07-26T05:13:28;9.27;;;2.27;;
1296;SDS011;641;48.492;9.184;2022-07-26T05:15:54;10.33;;;2.40;;
1296;SDS011;641;48.492;9.184;2022-07-26T05:18:19;7.80;;;2.13;;
1296;SDS011;641;48.492;9.184;2022-07-26T05:20:45;8.37;;;2.30;;
1296;SDS011;641;48.492;9.184;2022-07-26T05:23:11;7.97;;;2.13;;
1296;SDS011;641;48.492;9.184;2022-07-26T05:25:36;9.83;;;2.07;;
1296;SDS011;641;48.492;9.184;2022-07-26T05:28:03;8.00;;;2.30;;
1296;SDS011;641;48.492;9.184;2022-07-26T05:30:29;7.40;;;1.93;;
1296;SDS011;641;48.492;9.184;2022-07-26T05:32:55;8.33;;;2.27;;
1296;SDS011;641;48.492;9.184;2022-07-26T05:35:20;9.60;;;2.20;;
1296;SDS011;641;48.492;9.184;2022-07-26T05:37:46;10.00;;;1.70;;
1296;SDS011;641;48.492;9.184;2022-07-26T05:40:12;10.70;;;2.27;;
1296;SDS011;641;48.492;9.184;2022-07-26T05:42:38;8.40;;;2.17;;
1296;SDS011;641;48.492;9.184;2022-07-26T05:45:04;8.13;;;2.23;;
1296;SDS011;641;48.492;9.184;2022-07-26T05:47:30;8.53;;;2.47;;
1296;SDS011;641;48.492;9.184;2022-07-26T05:49:56;7.30;;;2.00;;
1296;SDS011;641;48.492;9.184;2022-07-26T05:52:22;10.43;;;2.17;;
1296;SDS011;641;48.492;9.184;2022-07-26T05:54:47;8.27;;;2.40;;
1296;SDS011;641;48.492;9.184;2022-07-26T05:57:13;8.67;;;2.00;;
1296;SDS011;641;48.492;9.184;2022-07-26T05:59:39;7.87;;;2.10;;
1296;SDS011;641;48.492;9.184;2022-07-26T06:02:04;7.50;;;2.07;;
1296;SDS011;641;48.492;9.184;2022-07-26T06:04:32;7.40;;;2.37;;
1296;SDS011;641;48.492;9.184;2022-07-26T06:06:58;9.13;;;2.80;;
1296;SDS011;641;48.492;9.184;2022-07-26T06:09:24;7.50;;;1.90;;
1296;SDS011;641;48.492;9.184;2022-07-26T06:11:51;12.03;;;2.10;;
1296;SDS011;641;48.492;9.184;2022-07-26T06:14:17;7.70;;;2.20;;
1296;SDS011;641;48.492;9.184;2022-07-26T06:16:44;7.00;;;1.87;;
1296;SDS011;641;48.492;9.184;2022-07-26T06:19:13;9.20;;;1.87;;
1296;SDS011;641;48.492;9.184;2022-07-26T06:21:39;8.30;;;2.07;;
1296;SDS011;641;48.492;9.184;2022-07-26T06:24:06;6.90;;;2.10;;
1296;SDS011;641;48.492;9.184;2022-07-26T06:26:32;8.40;;;2.00;;
1296;SDS011;641;48.492;9.184;2022-07-26T06:28:57;8.10;;;2.50;;
1296;SDS011;641;48.492;9.184;2022-07-26T06:31:23;6.80;;;2.07;;
1296;SDS011;641;48.492;9.184;2022-07-26T06:33:48;7.77;;;2.60;;
1296;SDS011;641;48.492;9.184;2022-07-26T06:36:15;10.67;;;2.90;;
1296;SDS011;641;48.492;9.184;2022-07-26T06:38:41;9.43;;;3.10;;
1296;SDS011;641;48.492;9.184;2022-07-26T06:41:06;9.27;;;2.90;;
1296;SDS011;641;48.492;9.184;2022-07-26T06:43:32;8.70;;;2.80;;
1296;SDS011;641;48.492;9.184;2022-07-26T06:45:57;8.80;;;3.03;;
1296;SDS011;641;48.492;9.184;2022-07-26T06:48:23;10.67;;;3.17;;
1296;SDS011;641;48.492;9.184;2022-07-26T06:50:49;8.80;;;2.80;;
1296;SDS011;641;48.492;9.184;2022-07-26T06:53:15;11.50;;;3.87;;
1296;SDS011;641;48.492;9.184;2022-07-26T06:55:40;9.63;;;2.63;;
1296;SDS011;641;48.492;9.184;2022-07-26T06:58:06;9.27;;;3.07;;
1296;SDS011;641;48.492;9.184;2022-07-26T07:00:31;8.60;;;3.10;;
1296;SDS011;641;48.492;9.184;2022-07-26T07:02:57;10.20;;;3.83;;
1296;SDS011;641;48.492;9.184;2022-07-26T07:05:23;8.03;;;2.90;;
1296;SDS011;641;48.492;9.184;2022-07-26T07:07:48;8.13;;;2.77;;
1296;SDS011;641;48.492;9.184;2022-07-26T07:10:14;9.90;;;3.13;;
1296;SDS011;641;48.492;9.184;2022-07-26T07:12:40;8.80;;;3.00;;
1296;SDS011;641;48.492;9.184;2022-07-26T07:15:07;9.13;;;3.37;;
1296;SDS011;641;48.492;9.184;2022-07-26T07:17:33;10.33;;;3.50;;
1296;SDS011;641;48.492;9.184;2022-07-26T07:19:59;9.50;;;2.80;;
1296;SDS011;641;48.492;9.184;2022-07-26T07:22:24;9.63;;;2.50;;
1296;SDS011;641;48.492;9.184;2022-07-26T07:24:50;7.87;;;2.97;;
1296;SDS011;641;48.492;9.184;2022-07-26T07:27:16;9.63;;;2.97;;
1296;SDS011;641;48.492;9.184;2022-07-26T07:29:41;9.30;;;3.00;;
1296;SDS011;641;48.492;9.184;2022-07-26T07:32:07;9.00;;;2.83;;
1296;SDS011;641;48.492;9.184;2022-07-26T07:34:33;7.37;;;3.03;;
1296;SDS011;641;48.492;9.184;2022-07-26T07:36:59;9.20;;;3.10;;
1296;SDS011;641;48.492;9.184;2022-07-26T07:39:24;11.13;;;3.43;;
1296;SDS011;641;48.492;9.184;2022-07-26T07:41:50;9.00;;;3.07;;
1296;SDS011;641;48.492;9.184;2022-07-26T07:44:15;8.73;;;3.30;;
1296;SDS011;641;48.492;9.184;2022-07-26T07:46:41;8.60;;;3.00;;
1296;SDS011;641;48.492;9.184;2022-07-26T07:49:07;9.33;;;2.97;;
1296;SDS011;641;48.492;9.184;2022-07-26T07:51:34;13.43;;;4.43;;
1296;SDS011;641;48.492;9.184;2022-07-26T07:54:01;10.10;;;2.90;;
1296;SDS011;641;48.492;9.184;2022-07-26T07:56:26;10.30;;;3.37;;
1296;SDS011;641;48.492;9.184;2022-07-26T07:58:52;7.80;;;2.40;;
1296;SDS011;641;48.492;9.184;2022-07-26T08:01:17;8.90;;;3.13;;
1296;SDS011;641;48.492;9.184;2022-07-26T08:03:43;9.10;;;2.87;;
1296;SDS011;641;48.492;9.184;2022-07-26T08:06:09;10.33;;;2.80;;
1296;SDS011;641;48.492;9.184;2022-07-26T08:08:35;8.87;;;2.47;;
1296;SDS011;641;48.492;9.184;2022-07-26T08:11:02;12.93;;;3.43;;
1296;SDS011;641;48.492;9.184;2022-07-26T08:13:28;10.43;;;2.70;;
1296;SDS011;641;48.492;9.184;2022-07-26T08:15:54;9.10;;;2.63;;
1296;SDS011;641;48.492;9.184;2022-07-26T08:18:21;10.30;;;3.00;;
1296;SDS011;641;48.492;9.184;2022-07-26T08:20:47;8.60;;;2.40;;
1296;SDS011;641;48.492;9.184;2022-07-26T08:23:14;7.20;;;1.90;;
1296;SDS011;641;48.492;9.184;2022-07-26T08:25:40;7.73;;;2.40;;
1296;SDS011;641;48.492;9.184;2022-07-26T08:28:06;8.33;;;2.50;;
1296;SDS011;641;48.492;9.184;2022-07-26T08:30:31;7.13;;;1.80;;
1296;SDS011;641;48.492;9.184;2022-07-26T08:32:58;7.50;;;2.13;;
1296;SDS011;641;48.492;9.184;2022-07-26T08:35:24;8.47;;;2.37;;
1296;SDS011;641;48.492;9.184;2022-07-26T08:37:49;10.17;;;3.07;;
1296;SDS011;641;48.492;9.184;2022-07-26T08:40:15;8.50;;;1.93;;
1296;SDS011;641;48.492;9.184;2022-07-26T08:42:47;9.00;;;2.00;;
1296;SDS011;641;48.492;9.184;2022-07-26T08:45:24;7.27;;;1.63;;
1296;SDS011;641;48.492;9.184;2022-07-26T08:47:52;7.80;;;1.40;;
1296;SDS011;641;48.492;9.184;2022-07-26T08:50:18;7.20;;;1.80;;
1296;SDS011;641;48.492;9.184;2022-07-26T08:52:44;10.73;;;2.33;;
1296;SDS011;641;48.492;9.184;2022-07-26T08:55:14;7.20;;;1.57;;
1296;SDS011;641;48.492;9.184;2022-07-26T08:57:40;7.20;;;1.50;;
1296;SDS011;641;48.492;9.184;2022-07-26T09:00:16;8.57;;;1.83;;
1296;SDS011;641;48.492;9.184;2022-07-26T09:02:43;9.03;;;1.90;;
1296;SDS011;641;48.492;9.184;2022-07-26T09:05:10;10.13;;;1.60;;
1296;SDS011;641;48.492;9.184;2022-07-26T09:07:36;10.33;;;2.43;;
1296;SDS011;641;48.492;9.184;2022-07-26T09:12:33;11.97;;;1.60;;
1296;SDS011;641;48.492;9.184;2022-07-26T09:15:00;9.13;;;1.53;;
1296;SDS011;641;48.492;9.184;2022-07-26T09:17:37;11.93;;;2.10;;
1296;SDS011;641;48.492;9.184;2022-07-26T09:22:31;8.53;;;1.77;;
1296;SDS011;641;48.492;9.184;2022-07-26T09:24:57;8.20;;;1.63;;
1296;SDS011;641;48.492;9.184;2022-07-26T09:27:22;11.17;;;2.33;;
1296;SDS011;641;48.492;9.184;2022-07-26T09:29:52;7.03;;;1.37;;
1296;SDS011;641;48.492;9.184;2022-07-26T09:32:20;7.93;;;1.83;;
1296;SDS011;641;48.492;9.184;2022-07-26T09:34:47;7.47;;;1.43;;
1296;SDS011;641;48.492;9.184;2022-07-26T09:37:35;9.07;;;1.40;;
1296;SDS011;641;48.492;9.184;2022-07-26T09:40:04;8.60;;;1.77;;
1296;SDS011;641;48.492;9.184;2022-07-26T09:42:52;8.83;;;1.70;;
1296;SDS011;641;48.492;9.184;2022-07-26T09:45:23;7.43;;;1.60;;
1296;SDS011;641;48.492;9.184;2022-07-26T09:47:50;9.57;;;1.57;;
1296;SDS011;641;48.492;9.184;2022-07-26T09:50:16;7.63;;;1.33;;
1296;SDS011;641;48.492;9.184;2022-07-26T09:55:28;8.90;;;1.33;;
1296;SDS011;641;48.492;9.184;2022-07-26T09:57:55;7.20;;;1.80;;
1296;SDS011;641;48.492;9.184;2022-07-26T10:00:23;6.20;;;1.23;;
1296;SDS011;641;48.492;9.184;2022-07-26T10:02:50;7.50;;;1.40;;
1296;SDS011;641;48.492;9.184;2022-07-26T10:05:16;8.50;;;1.60;;
1296;SDS011;641;48.492;9.184;2022-07-26T10:07:42;6.63;;;1.50;;
1296;SDS011;641;48.492;9.184;2022-07-26T10:10:13;9.37;;;2.27;;
1296;SDS011;641;48.492;9.184;2022-07-26T10:12:42;8.07;;;1.37;;
1296;SDS011;641;48.492;9.184;2022-07-26T10:18:02;11.87;;;1.40;;
1296;SDS011;641;48.492;9.184;2022-07-26T10:25:56;8.40;;;1.67;;
1296;SDS011;641;48.492;9.184;2022-07-26T10:28:22;7.77;;;1.20;;
1296;SDS011;641;48.492;9.184;2022-07-26T10:30:51;8.50;;;1.47;;
1296;SDS011;641;48.492;9.184;2022-07-26T10:33:18;8.00;;;1.40;;
1296;SDS011;641;48.492;9.184;2022-07-26T10:35:47;9.57;;;1.93;;
1296;SDS011;641;48.492;9.184;2022-07-26T10:38:24;10.00;;;1.90;;
1296;SDS011;641;48.492;9.184;2022-07-26T10:40:58;8.40;;;1.50;;
1296;SDS011;641;48.492;9.184;2022-07-26T10:43:28;7.30;;;1.50;;
1296;SDS011;641;48.492;9.184;2022-07-26T10:48:57;6.27;;;1.10;;
1296;SDS011;641;48.492;9.184;2022-07-26T10:51:29;10.83;;;2.23;;
1296;SDS011;641;48.492;9.184;2022-07-26T10:54:00;7.10;;;1.30;;
1296;SDS011;641;48.492;9.184;2022-07-26T10:56:28;8.67;;;1.70;;
1296;SDS011;641;48.492;9.184;2022-07-26T10:58:54;9.47;;;1.53;;
1296;SDS011;641;48.492;9.184;2022-07-26T11:01:20;6.57;;;1.13;;
1296;SDS011;641;48.492;9.184;2022-07-26T11:03:45;8.20;;;1.47;;
1296;SDS011;641;48.492;9.184;2022-07-26T11:06:12;7.03;;;1.20;;
1296;SDS011;641;48.492;9.184;2022-07-26T11:08:43;11.10;;;2.30;;
1296;SDS011;641;48.492;9.184;2022-07-26T11:11:11;7.40;;;1.30;;
1296;SDS011;641;48.492;9.184;2022-07-26T11:13:37;7.80;;;1.60;;
1296;SDS011;641;48.492;9.184;2022-07-26T11:16:05;8.60;;;1.70;;
1296;SDS011;641;48.492;9.184;2022-07-26T11:18:33;7.17;;;1.20;;
1296;SDS011;641;48.492;9.184;2022-07-26T11:23:42;7.37;;;1.00;;
1296;SDS011;641;48.492;9.184;2022-07-26T11:31:10;7.97;;;1.40;;
1296;SDS011;641;48.492;9.184;2022-07-26T11:33:37;8.23;;;1.80;;
1296;SDS011;641;48.492;9.184;2022-07-26T11:36:07;6.33;;;0.87;;
1296;SDS011;641;48.492;9.184;2022-07-26T11:41:19;7.70;;;1.23;;
1296;SDS011;641;48.492;9.184;2022-07-26T11:43:46;8.67;;;2.00;;
1296;SDS011;641;48.492;9.184;2022-07-26T11:46:13;6.67;;;1.20;;
1296;SDS011;641;48.492;9.184;2022-07-26T11:48:43;8.40;;;1.30;;
1296;SDS011;641;48.492;9.184;2022-07-26T11:51:14;7.80;;;1.43;;
1296;SDS011;641;48.492;9.184;2022-07-26T11:53:45;7.93;;;1.17;;
1296;SDS011;641;48.492;9.184;2022-07-26T11:56:21;8.87;;;1.70;;
1296;SDS011;641;48.492;9.184;2022-07-26T11:58:48;7.20;;;1.40;;
1296;SDS011;641;48.492;9.184;2022-07-26T12:01:17;6.60;;;1.43;;
1296;SDS011;641;48.492;9.184;2022-07-26T12:03:45;7.70;;;1.50;;
1296;SDS011;641;48.492;9.184;2022-07-26T12:06:16;6.10;;;0.90;;
1296;SDS011;641;48.492;9.184;2022-07-26T12:08:45;7.13;;;1.20;;
1296;SDS011;641;48.492;9.184;2022-07-26T12:11:14;6.20;;;0.97;;
1296;SDS011;641;48.492;9.184;2022-07-26T12:13:54;10.90;;;1.20;;
1296;SDS011;641;48.492;9.184;2022-07-26T12:16:38;8.93;;;1.70;;
1296;SDS011;641;48.492;9.184;2022-07-26T12:19:05;6.80;;;1.00;;
1296;SDS011;641;48.492;9.184;2022-07-26T12:21:39;6.93;;;1.10;;
1296;SDS011;641;48.492;9.184;2022-07-26T12:27:07;7.87;;;1.57;;
1296;SDS011;641;48.492;9.184;2022-07-26T12:29:55;7.80;;;0.80;;
1296;SDS011;641;48.492;9.184;2022-07-26T12:32:38;7.20;;;0.90;;
1296;SDS011;641;48.492;9.184;2022-07-26T12:35:07;9.30;;;1.50;;
1296;SDS011;641;48.492;9.184;2022-07-26T12:37:34;6.40;;;1.00;;
1296;SDS011;641;48.492;9.184;2022-07-26T12:40:22;6.90;;;0.97;;
1296;SDS011;641;48.492;9.184;2022-07-26T12:45:15;6.80;;;1.10;;
1296;SDS011;641;48.492;9.184;2022-07-26T12:47:43;7.30;;;1.67;;
1296;SDS011;641;48.492;9.184;2022-07-26T12:50:11;6.90;;;1.00;;
1296;SDS011;641;48.492;9.184;2022-07-26T12:52:38;9.47;;;1.13;;
1296;SDS011;641;48.492;9.184;2022-07-26T12:55:05;9.97;;;1.40;;
1296;SDS011;641;48.492;9.184;2022-07-26T12:57:31;5.90;;;0.93;;
1296;SDS011;641;48.492;9.184;2022-07-26T12:59:57;6.50;;;0.90;;
1296;SDS011;641;48.492;9.184;2022-07-26T13:02:24;7.53;;;1.60;;
1296;SDS011;641;48.492;9.184;2022-07-26T13:04:50;6.20;;;1.00;;
1296;SDS011;641;48.492;9.184;2022-07-26T13:07:16;8.33;;;1.50;;
1296;SDS011;641;48.492;9.184;2022-07-26T13:09:43;7.60;;;1.30;;
1296;SDS011;641;48.492;9.184;2022-07-26T13:12:10;8.93;;;1.20;;
1296;SDS011;641;48.492;9.184;2022-07-26T13:14:37;7.17;;;1.43;;
1296;SDS011;641;48.492;9.184;2022-07-26T13:17:03;7.40;;;1.83;;
1296;SDS011;641;48.492;9.184;2022-07-26T13:19:29;6.30;;;0.90;;
1296;SDS011;641;48.492;9.184;2022-07-26T13:21:56;8.90;;;1.40;;
1296;SDS011;641;48.492;9.184;2022-07-26T13:24:26;9.20;;;1.87;;
1296;SDS011;641;48.492;9.184;2022-07-26T13:26:52;9.03;;;1.30;;
1296;SDS011;641;48.492;9.184;2022-07-26T13:29:18;7.20;;;1.10;;
1296;SDS011;641;48.492;9.184;2022-07-26T13:31:45;6.20;;;0.80;;
1296;SDS011;641;48.492;9.184;2022-07-26T13:34:11;7.53;;;1.33;;
1296;SDS011;641;48.492;9.184;2022-07-26T13:36:37;6.90;;;1.07;;
1296;SDS011;641;48.492;9.184;2022-07-26T13:39:03;7.23;;;1.10;;
1296;SDS011;641;48.492;9.184;2022-07-26T13:41:29;7.03;;;1.60;;
1296;SDS011;641;48.492;9.184;2022-07-26T13:43:55;6.00;;;1.00;;
1296;SDS011;641;48.492;9.184;2022-07-26T13:46:21;6.20;;;1.00;;
1296;SDS011;641;48.492;9.184;2022-07-26T13:48:48;6.53;;;1.20;;
1296;SDS011;641;48.492;9.184;2022-07-26T13:51:15;6.17;;;1.20;;
1296;SDS011;641;48.492;9.184;2022-07-26T13:53:41;6.70;;;1.00;;
1296;SDS011;641;48.492;9.184;2022-07-26T13:56:06;7.50;;;0.90;;
1296;SDS011;641;48.492;9.184;2022-07-26T13:58:33;6.93;;;0.80;;
1296;SDS011;641;48.492;9.184;2022-07-26T14:00:59;7.07;;;1.40;;
1296;SDS011;641;48.492;9.184;2022-07-26T14:03:25;6.10;;;0.87;;
1296;SDS011;641;48.492;9.184;2022-07-26T14:05:51;9.00;;;1.07;;
1296;SDS011;641;48.492;9.184;2022-07-26T14:08:17;6.83;;;1.17;;
1296;SDS011;641;48.492;9.184;2022-07-26T14:10:42;6.60;;;1.10;;
1296;SDS011;641;48.492;9.184;2022-07-26T14:13:08;6.93;;;0.80;;
1296;SDS011;641;48.492;9.184;2022-07-26T14:15:34;7.20;;;1.37;;
1296;SDS011;641;48.492;9.184;2022-07-26T14:18:00;6.40;;;1.10;;
1296;SDS011;641;48.492;9.184;2022-07-26T14:20:26;8.63;;;1.80;;
1296;SDS011;641;48.492;9.184;2022-07-26T14:22:52;6.30;;;1.13;;
1296;SDS011;641;48.492;9.184;2022-07-26T14:25:20;8.20;;;1.70;;
1296;SDS011;641;48.492;9.184;2022-07-26T14:27:47;8.10;;;1.10;;
1296;SDS011;641;48.492;9.184;2022-07-26T14:30:13;6.77;;;1.47;;
1296;SDS011;641;48.492;9.184;2022-07-26T14:32:39;7.43;;;1.50;;
1296;SDS011;641;48.492;9.184;2022-07-26T14:35:05;7.43;;;1.40;;
1296;SDS011;641;48.492;9.184;2022-07-26T14:37:31;6.37;;;1.17;;
1296;SDS011;641;48.492;9.184;2022-07-26T14:39:57;9.57;;;1.80;;
1296;SDS011;641;48.492;9.184;2022-07-26T14:42:24;7.13;;;1.20;;
1296;SDS011;641;48.492;9.184;2022-07-26T14:44:49;6.57;;;1.17;;
1296;SDS011;641;48.492;9.184;2022-07-26T14:47:15;6.20;;;1.00;;
1296;SDS011;641;48.492;9.184;2022-07-26T14:49:41;8.67;;;1.67;;
1296;SDS011;641;48.492;9.184;2022-07-26T14:52:06;8.50;;;1.40;;
1296;SDS011;641;48.492;9.184;2022-07-26T14:54:32;7.07;;;1.47;;
1296;SDS011;641;48.492;9.184;2022-07-26T14:56:58;6.63;;;1.20;;
1296;SDS011;641;48.492;9.184;2022-07-26T14:59:23;6.30;;;1.00;;
1296;SDS011;641;48.492;9.184;2022-07-26T15:01:50;7.60;;;1.10;;
1296;SDS011;641;48.492;9.184;2022-07-26T15:04:15;7.80;;;1.57;;
1296;SDS011;641;48.492;9.184;2022-07-26T15:06:41;6.77;;;1.03;;
1296;SDS011;641;48.492;9.184;2022-07-26T15:09:06;7.80;;;1.00;;
1296;SDS011;641;48.492;9.184;2022-07-26T15:11:32;6.20;;;1.10;;
1296;SDS011;641;48.492;9.184;2022-07-26T15:13:58;7.30;;;1.47;;
1296;SDS011;641;48.492;9.184;2022-07-26T15:16:24;7.73;;;1.30;;
1296;SDS011;641;48.492;9.184;2022-07-26T15:18:50;7.20;;;1.47;;
1296;SDS011;641;48.492;9.184;2022-07-26T15:21:15;6.93;;;1.30;;
1296;SDS011;641;48.492;9.184;2022-07-26T15:23:41;6.23;;;1.00;;
1296;SDS011;641;48.492;9.184;2022-07-26T15:26:07;7.37;;;1.50;;
1296;SDS011;641;48.492;9.184;2022-07-26T15:28:32;7.83;;;1.53;;
1296;SDS011;641;48.492;9.184;2022-07-26T15:30:58;7.73;;;0.93;;
1296;SDS011;641;48.492;9.184;2022-07-26T15:33:24;7.80;;;0.97;;
1296;SDS011;641;48.492;9.184;2022-07-26T15:35:49;6.90;;;1.20;;
1296;SDS011;641;48.492;9.184;2022-07-26T15:38:19;7.47;;;1.37;;
1296;SDS011;641;48.492;9.184;2022-07-26T15:40:45;7.23;;;1.17;;
1296;SDS011;641;48.492;9.184;2022-07-26T15:43:11;5.97;;;0.90;;
1296;SDS011;641;48.492;9.184;2022-07-26T15:45:45;7.57;;;1.30;;
1296;SDS011;641;48.492;9.184;2022-07-26T15:48:10;7.60;;;1.33;;
1296;SDS011;641;48.492;9.184;2022-07-26T15:50:36;8.00;;;1.20;;
1296;SDS011;641;48.492;9.184;2022-07-26T15:53:02;7.87;;;1.60;;
1296;SDS011;641;48.492;9.184;2022-07-26T15:55:28;7.43;;;1.53;;
1296;SDS011;641;48.492;9.184;2022-07-26T15:57:54;7.60;;;1.67;;
1296;SDS011;641;48.492;9.184;2022-07-26T16:00:20;6.80;;;1.13;;